Cohasset, Massachusetts
Current Conditions -  °F | °C
As of 6:35 PM on Saturday 20 Dec 2014 (Local Time) from KGHG Reporting Station
Unknown Precip Unknown Precip  
Wind Chill: 30°   Ceiling: 1600
Heat Index: 37°   Visibility: 5mi
Dew Point: 36°   Wind: 12mph
Humidity: 93%   Direction: 50°NE
Pressure: 30.29"   Gusts: 20mph
Location:  42.24°N, 70.8°W
Report Text: KGHG 202335Z AUTO 05010G17KT 5SM UP BKN016 OVC021 03/02 A3029 RMK AO2
Loading
Personal Weather Stations






























Interactive Weather Map New forecast layout! Learn more

10-Day Weather Forecast

Advertisements
Track Severe Weather on mobile